sensor_id;sensor_type;location;lat;lon;timestamp;temperature;humidity
67899;DHT22;54699;51.796;10.956;2023-02-12T00:00:04;16.40;54.10
67899;DHT22;54699;51.796;10.956;2023-02-12T00:02:32;16.40;54.10
67899;DHT22;54699;51.796;10.956;2023-02-12T00:04:59;16.40;54.10
67899;DHT22;54699;51.796;10.956;2023-02-12T00:07:29;16.40;53.90
67899;DHT22;54699;51.796;10.956;2023-02-12T00:09:56;16.40;54.10
67899;DHT22;54699;51.796;10.956;2023-02-12T00:12:23;16.40;54.00
67899;DHT22;54699;51.796;10.956;2023-02-12T00:14:50;16.40;54.10
67899;DHT22;54699;51.796;10.956;2023-02-12T00:17:17;16.40;54.10
67899;DHT22;54699;51.796;10.956;2023-02-12T00:19:43;16.40;54.00
67899;DHT22;54699;51.796;10.956;2023-02-12T00:22:12;16.40;54.00
67899;DHT22;54699;51.796;10.956;2023-02-12T00:24:40;16.30;54.00
67899;DHT22;54699;51.796;10.956;2023-02-12T00:27:06;16.40;54.10
67899;DHT22;54699;51.796;10.956;2023-02-12T00:29:33;16.30;54.00
67899;DHT22;54699;51.796;10.956;2023-02-12T00:32:00;16.30;54.10
67899;DHT22;54699;51.796;10.956;2023-02-12T00:34:27;16.30;53.90
67899;DHT22;54699;51.796;10.956;2023-02-12T00:36:54;16.30;54.10
67899;DHT22;54699;51.796;10.956;2023-02-12T00:39:21;16.30;54.10
67899;DHT22;54699;51.796;10.956;2023-02-12T00:41:49;16.30;54.00
67899;DHT22;54699;51.796;10.956;2023-02-12T00:44:16;16.30;54.10
67899;DHT22;54699;51.796;10.956;2023-02-12T00:46:43;16.30;54.10
67899;DHT22;54699;51.796;10.956;2023-02-12T00:49:09;16.30;54.00
67899;DHT22;54699;51.796;10.956;2023-02-12T00:51:36;16.30;54.00
67899;DHT22;54699;51.796;10.956;2023-02-12T00:54:03;16.30;54.10
67899;DHT22;54699;51.796;10.956;2023-02-12T00:56:30;16.30;53.90
67899;DHT22;54699;51.796;10.956;2023-02-12T00:58:58;16.30;54.20
67899;DHT22;54699;51.796;10.956;2023-02-12T01:01:25;16.30;54.00
67899;DHT22;54699;51.796;10.956;2023-02-12T01:03:52;16.30;54.00
67899;DHT22;54699;51.796;10.956;2023-02-12T01:06:19;16.30;53.90
67899;DHT22;54699;51.796;10.956;2023-02-12T01:08:48;16.30;54.00
67899;DHT22;54699;51.796;10.956;2023-02-12T01:11:16;16.30;54.10
67899;DHT22;54699;51.796;10.956;2023-02-12T01:13:44;16.30;53.90
67899;DHT22;54699;51.796;10.956;2023-02-12T01:16:15;16.30;54.10
67899;DHT22;54699;51.796;10.956;2023-02-12T01:18:43;16.30;54.00
67899;DHT22;54699;51.796;10.956;2023-02-12T01:21:12;16.30;54.00
67899;DHT22;54699;51.796;10.956;2023-02-12T01:23:40;16.30;54.00
67899;DHT22;54699;51.796;10.956;2023-02-12T01:26:08;16.30;53.90
67899;DHT22;54699;51.796;10.956;2023-02-12T01:28:36;16.30;54.10
67899;DHT22;54699;51.796;10.956;2023-02-12T01:31:06;16.30;54.10
67899;DHT22;54699;51.796;10.956;2023-02-12T01:33:35;16.30;54.00
67899;DHT22;54699;51.796;10.956;2023-02-12T01:36:02;16.30;54.00
67899;DHT22;54699;51.796;10.956;2023-02-12T01:38:29;16.30;53.90
67899;DHT22;54699;51.796;10.956;2023-02-12T01:41:00;16.30;54.00
67899;DHT22;54699;51.796;10.956;2023-02-12T01:43:28;16.30;54.00
67899;DHT22;54699;51.796;10.956;2023-02-12T01:45:57;16.30;54.00
67899;DHT22;54699;51.796;10.956;2023-02-12T01:48:26;16.30;54.20
67899;DHT22;54699;51.796;10.956;2023-02-12T01:50:55;16.30;54.10
67899;DHT22;54699;51.796;10.956;2023-02-12T01:53:25;16.30;54.10
67899;DHT22;54699;51.796;10.956;2023-02-12T01:55:57;16.30;54.20
67899;DHT22;54699;51.796;10.956;2023-02-12T01:58:26;16.30;54.10
67899;DHT22;54699;51.796;10.956;2023-02-12T02:00:55;16.30;53.90
67899;DHT22;54699;51.796;10.956;2023-02-12T02:03:24;16.30;54.10
67899;DHT22;54699;51.796;10.956;2023-02-12T02:05:53;16.30;54.10
67899;DHT22;54699;51.796;10.956;2023-02-12T02:08:23;16.30;54.10
67899;DHT22;54699;51.796;10.956;2023-02-12T02:10:50;16.30;54.00
67899;DHT22;54699;51.796;10.956;2023-02-12T02:13:18;16.20;54.10
67899;DHT22;54699;51.796;10.956;2023-02-12T02:16:08;16.30;53.90
67899;DHT22;54699;51.796;10.956;2023-02-12T02:18:42;16.30;54.10
67899;DHT22;54699;51.796;10.956;2023-02-12T02:21:34;16.20;53.90
67899;DHT22;54699;51.796;10.956;2023-02-12T02:24:36;16.20;53.90
67899;DHT22;54699;51.796;10.956;2023-02-12T02:27:29;16.20;54.00
67899;DHT22;54699;51.796;10.956;2023-02-12T02:30:26;16.20;54.00
67899;DHT22;54699;51.796;10.956;2023-02-12T02:33:04;16.30;54.00
67899;DHT22;54699;51.796;10.956;2023-02-12T02:35:41;16.20;54.10
67899;DHT22;54699;51.796;10.956;2023-02-12T02:38:17;16.20;54.00
67899;DHT22;54699;51.796;10.956;2023-02-12T02:40:51;16.20;54.10
67899;DHT22;54699;51.796;10.956;2023-02-12T02:43:25;16.20;54.10
67899;DHT22;54699;51.796;10.956;2023-02-12T02:45:58;16.20;54.10
67899;DHT22;54699;51.796;10.956;2023-02-12T02:48:31;16.20;54.00
67899;DHT22;54699;51.796;10.956;2023-02-12T02:51:04;16.20;53.90
67899;DHT22;54699;51.796;10.956;2023-02-12T02:53:34;16.20;54.00
67899;DHT22;54699;51.796;10.956;2023-02-12T02:56:05;16.20;54.00
67899;DHT22;54699;51.796;10.956;2023-02-12T02:58:34;16.20;54.00
67899;DHT22;54699;51.796;10.956;2023-02-12T03:01:08;16.20;53.90
67899;DHT22;54699;51.796;10.956;2023-02-12T03:03:39;16.20;54.10
67899;DHT22;54699;51.796;10.956;2023-02-12T03:06:11;16.20;54.00
67899;DHT22;54699;51.796;10.956;2023-02-12T03:08:41;16.20;54.10
67899;DHT22;54699;51.796;10.956;2023-02-12T03:11:14;16.20;54.00
67899;DHT22;54699;51.796;10.956;2023-02-12T03:13:45;16.20;54.00
67899;DHT22;54699;51.796;10.956;2023-02-12T03:16:17;16.20;54.10
67899;DHT22;54699;51.796;10.956;2023-02-12T03:18:49;16.20;54.00
67899;DHT22;54699;51.796;10.956;2023-02-12T03:21:21;16.20;54.00
67899;DHT22;54699;51.796;10.956;2023-02-12T03:23:54;16.20;54.00
67899;DHT22;54699;51.796;10.956;2023-02-12T03:26:28;16.20;54.00
67899;DHT22;54699;51.796;10.956;2023-02-12T03:29:01;16.20;54.10
67899;DHT22;54699;51.796;10.956;2023-02-12T03:31:30;16.20;54.10
67899;DHT22;54699;51.796;10.956;2023-02-12T03:34:04;16.20;54.10
67899;DHT22;54699;51.796;10.956;2023-02-12T03:36:36;16.20;54.00
67899;DHT22;54699;51.796;10.956;2023-02-12T03:39:08;16.20;54.10
67899;DHT22;54699;51.796;10.956;2023-02-12T03:41:41;16.20;54.10
67899;DHT22;54699;51.796;10.956;2023-02-12T03:44:14;16.20;54.10
67899;DHT22;54699;51.796;10.956;2023-02-12T03:46:53;16.20;54.00
67899;DHT22;54699;51.796;10.956;2023-02-12T03:49:28;16.20;54.10
67899;DHT22;54699;51.796;10.956;2023-02-12T03:52:02;16.20;54.10
67899;DHT22;54699;51.796;10.956;2023-02-12T03:54:29;16.20;54.10
67899;DHT22;54699;51.796;10.956;2023-02-12T03:56:58;16.20;54.10
67899;DHT22;54699;51.796;10.956;2023-02-12T03:59:29;16.20;54.10
67899;DHT22;54699;51.796;10.956;2023-02-12T04:01:57;16.20;54.10
67899;DHT22;54699;51.796;10.956;2023-02-12T04:04:25;16.20;54.10
67899;DHT22;54699;51.796;10.956;2023-02-12T04:06:52;16.20;54.00
67899;DHT22;54699;51.796;10.956;2023-02-12T04:09:20;16.20;54.00
67899;DHT22;54699;51.796;10.956;2023-02-12T04:12:01;16.20;54.00
67899;DHT22;54699;51.796;10.956;2023-02-12T04:14:52;16.20;54.00
67899;DHT22;54699;51.796;10.956;2023-02-12T04:17:28;16.20;54.00
67899;DHT22;54699;51.796;10.956;2023-02-12T04:20:03;16.20;54.20
67899;DHT22;54699;51.796;10.956;2023-02-12T04:22:39;16.20;54.10
67899;DHT22;54699;51.796;10.956;2023-02-12T04:25:16;16.20;54.10
67899;DHT22;54699;51.796;10.956;2023-02-12T04:27:48;16.20;54.10
67899;DHT22;54699;51.796;10.956;2023-02-12T04:30:20;16.20;54.10
67899;DHT22;54699;51.796;10.956;2023-02-12T04:32:52;16.20;54.10
67899;DHT22;54699;51.796;10.956;2023-02-12T04:35:25;16.20;54.20
67899;DHT22;54699;51.796;10.956;2023-02-12T04:37:58;16.20;54.30
67899;DHT22;54699;51.796;10.956;2023-02-12T04:40:29;16.20;54.30
67899;DHT22;54699;51.796;10.956;2023-02-12T04:42:57;16.20;54.30
67899;DHT22;54699;51.796;10.956;2023-02-12T04:45:25;16.20;54.20
67899;DHT22;54699;51.796;10.956;2023-02-12T04:47:54;16.20;54.30
67899;DHT22;54699;51.796;10.956;2023-02-12T04:50:21;16.20;54.30
67899;DHT22;54699;51.796;10.956;2023-02-12T04:52:48;16.20;54.20
67899;DHT22;54699;51.796;10.956;2023-02-12T04:55:15;16.20;54.30
67899;DHT22;54699;51.796;10.956;2023-02-12T04:57:42;16.20;54.20
67899;DHT22;54699;51.796;10.956;2023-02-12T05:00:10;16.20;54.20
67899;DHT22;54699;51.796;10.956;2023-02-12T05:02:39;16.20;54.30
67899;DHT22;54699;51.796;10.956;2023-02-12T05:05:07;16.20;54.30
67899;DHT22;54699;51.796;10.956;2023-02-12T05:07:34;16.20;54.40
67899;DHT22;54699;51.796;10.956;2023-02-12T05:10:01;16.20;54.20
67899;DHT22;54699;51.796;10.956;2023-02-12T05:12:28;16.20;54.30
67899;DHT22;54699;51.796;10.956;2023-02-12T05:14:55;16.20;54.20
67899;DHT22;54699;51.796;10.956;2023-02-12T05:17:22;16.10;54.20
67899;DHT22;54699;51.796;10.956;2023-02-12T05:19:50;16.20;54.30
67899;DHT22;54699;51.796;10.956;2023-02-12T05:22:18;16.10;54.30
67899;DHT22;54699;51.796;10.956;2023-02-12T05:24:45;16.20;54.30
67899;DHT22;54699;51.796;10.956;2023-02-12T05:27:12;16.20;54.30
67899;DHT22;54699;51.796;10.956;2023-02-12T05:29:38;16.10;54.30
67899;DHT22;54699;51.796;10.956;2023-02-12T05:32:05;16.10;54.30
67899;DHT22;54699;51.796;10.956;2023-02-12T05:34:32;16.10;54.30
67899;DHT22;54699;51.796;10.956;2023-02-12T05:36:59;16.20;54.30
67899;DHT22;54699;51.796;10.956;2023-02-12T05:39:28;16.20;54.10
67899;DHT22;54699;51.796;10.956;2023-02-12T05:41:54;16.20;54.30
67899;DHT22;54699;51.796;10.956;2023-02-12T05:44:21;16.20;54.30
67899;DHT22;54699;51.796;10.956;2023-02-12T05:46:48;16.20;54.40
67899;DHT22;54699;51.796;10.956;2023-02-12T05:49:15;16.20;54.30
67899;DHT22;54699;51.796;10.956;2023-02-12T05:51:42;16.20;54.30
67899;DHT22;54699;51.796;10.956;2023-02-12T05:54:08;16.20;54.30
67899;DHT22;54699;51.796;10.956;2023-02-12T05:56:40;16.20;54.30
67899;DHT22;54699;51.796;10.956;2023-02-12T05:59:11;16.20;54.20
67899;DHT22;54699;51.796;10.956;2023-02-12T06:01:41;16.20;54.30
67899;DHT22;54699;51.796;10.956;2023-02-12T06:04:09;16.20;54.40
67899;DHT22;54699;51.796;10.956;2023-02-12T06:06:40;16.20;54.20
67899;DHT22;54699;51.796;10.956;2023-02-12T06:09:07;16.20;54.20
67899;DHT22;54699;51.796;10.956;2023-02-12T06:11:34;16.20;54.10
67899;DHT22;54699;51.796;10.956;2023-02-12T06:14:02;16.20;54.20
67899;DHT22;54699;51.796;10.956;2023-02-12T06:16:29;16.20;54.10
67899;DHT22;54699;51.796;10.956;2023-02-12T06:18:57;16.10;54.10
67899;DHT22;54699;51.796;10.956;2023-02-12T06:21:28;16.10;54.30
67899;DHT22;54699;51.796;10.956;2023-02-12T06:23:56;16.20;54.50
67899;DHT22;54699;51.796;10.956;2023-02-12T06:26:23;16.20;54.40
67899;DHT22;54699;51.796;10.956;2023-02-12T06:28:50;16.20;54.30
67899;DHT22;54699;51.796;10.956;2023-02-12T06:31:19;16.20;54.30
67899;DHT22;54699;51.796;10.956;2023-02-12T06:33:47;16.10;54.30
67899;DHT22;54699;51.796;10.956;2023-02-12T06:36:15;16.10;54.40
67899;DHT22;54699;51.796;10.956;2023-02-12T06:38:42;16.10;54.40
67899;DHT22;54699;51.796;10.956;2023-02-12T06:41:09;16.10;54.40
67899;DHT22;54699;51.796;10.956;2023-02-12T06:43:36;16.20;54.40
67899;DHT22;54699;51.796;10.956;2023-02-12T06:46:04;16.10;54.40
67899;DHT22;54699;51.796;10.956;2023-02-12T06:48:33;16.20;54.50
67899;DHT22;54699;51.796;10.956;2023-02-12T06:51:03;16.10;54.40
67899;DHT22;54699;51.796;10.956;2023-02-12T06:53:31;16.10;54.50
67899;DHT22;54699;51.796;10.956;2023-02-12T06:55:59;16.10;54.40
67899;DHT22;54699;51.796;10.956;2023-02-12T06:58:26;16.10;54.40
67899;DHT22;54699;51.796;10.956;2023-02-12T07:00:53;16.10;54.40
67899;DHT22;54699;51.796;10.956;2023-02-12T07:03:19;16.10;54.50
67899;DHT22;54699;51.796;10.956;2023-02-12T07:05:47;16.10;54.40
67899;DHT22;54699;51.796;10.956;2023-02-12T07:08:14;16.10;54.40
67899;DHT22;54699;51.796;10.956;2023-02-12T07:10:41;16.10;54.40
67899;DHT22;54699;51.796;10.956;2023-02-12T07:13:08;16.20;54.50
67899;DHT22;54699;51.796;10.956;2023-02-12T07:15:37;16.20;54.50
67899;DHT22;54699;51.796;10.956;2023-02-12T07:18:04;16.10;54.60
67899;DHT22;54699;51.796;10.956;2023-02-12T07:20:31;16.10;54.40
67899;DHT22;54699;51.796;10.956;2023-02-12T07:22:59;16.10;54.60
67899;DHT22;54699;51.796;10.956;2023-02-12T07:25:25;16.10;54.60
67899;DHT22;54699;51.796;10.956;2023-02-12T07:27:52;16.10;54.60
67899;DHT22;54699;51.796;10.956;2023-02-12T07:30:19;16.10;54.70
67899;DHT22;54699;51.796;10.956;2023-02-12T07:32:45;16.10;54.70
67899;DHT22;54699;51.796;10.956;2023-02-12T07:35:12;16.20;54.80
67899;DHT22;54699;51.796;10.956;2023-02-12T07:37:39;16.10;54.70
67899;DHT22;54699;51.796;10.956;2023-02-12T07:40:08;16.10;54.60
67899;DHT22;54699;51.796;10.956;2023-02-12T07:42:35;16.10;54.60
67899;DHT22;54699;51.796;10.956;2023-02-12T07:45:02;16.10;54.80
67899;DHT22;54699;51.796;10.956;2023-02-12T07:47:29;16.10;54.80
67899;DHT22;54699;51.796;10.956;2023-02-12T07:49:56;16.10;54.90
67899;DHT22;54699;51.796;10.956;2023-02-12T07:52:22;16.10;54.90
67899;DHT22;54699;51.796;10.956;2023-02-12T07:54:49;16.10;54.80
67899;DHT22;54699;51.796;10.956;2023-02-12T07:57:17;16.10;55.00
67899;DHT22;54699;51.796;10.956;2023-02-12T07:59:44;16.10;54.90
67899;DHT22;54699;51.796;10.956;2023-02-12T08:02:10;16.10;55.00
67899;DHT22;54699;51.796;10.956;2023-02-12T08:04:37;16.10;55.00
67899;DHT22;54699;51.796;10.956;2023-02-12T08:07:04;16.10;55.00
67899;DHT22;54699;51.796;10.956;2023-02-12T08:09:30;16.10;55.10
67899;DHT22;54699;51.796;10.956;2023-02-12T08:11:57;16.10;55.10
67899;DHT22;54699;51.796;10.956;2023-02-12T08:14:26;16.10;55.10
67899;DHT22;54699;51.796;10.956;2023-02-12T08:16:53;16.10;55.20
67899;DHT22;54699;51.796;10.956;2023-02-12T08:19:20;16.10;55.20
67899;DHT22;54699;51.796;10.956;2023-02-12T08:21:48;16.10;55.20
67899;DHT22;54699;51.796;10.956;2023-02-12T08:24:15;16.10;55.10
67899;DHT22;54699;51.796;10.956;2023-02-12T08:26:42;16.10;55.30
67899;DHT22;54699;51.796;10.956;2023-02-12T08:29:11;16.10;55.30
67899;DHT22;54699;51.796;10.956;2023-02-12T08:31:40;16.10;55.30
67899;DHT22;54699;51.796;10.956;2023-02-12T08:34:13;16.10;55.30
67899;DHT22;54699;51.796;10.956;2023-02-12T08:36:43;16.10;55.30
67899;DHT22;54699;51.796;10.956;2023-02-12T08:39:10;16.10;55.40
67899;DHT22;54699;51.796;10.956;2023-02-12T08:41:37;16.10;55.30
67899;DHT22;54699;51.796;10.956;2023-02-12T08:44:06;16.10;55.50
67899;DHT22;54699;51.796;10.956;2023-02-12T08:46:34;16.10;55.50
67899;DHT22;54699;51.796;10.956;2023-02-12T08:49:05;16.10;55.60
67899;DHT22;54699;51.796;10.956;2023-02-12T08:51:34;16.10;55.50
67899;DHT22;54699;51.796;10.956;2023-02-12T08:54:03;16.10;55.50
67899;DHT22;54699;51.796;10.956;2023-02-12T08:56:32;16.10;55.60
67899;DHT22;54699;51.796;10.956;2023-02-12T08:59:01;16.20;55.70
67899;DHT22;54699;51.796;10.956;2023-02-12T09:01:30;16.20;55.70
67899;DHT22;54699;51.796;10.956;2023-02-12T09:03:59;16.20;55.70
67899;DHT22;54699;51.796;10.956;2023-02-12T09:06:27;16.20;55.80
67899;DHT22;54699;51.796;10.956;2023-02-12T09:08:56;16.20;56.00
67899;DHT22;54699;51.796;10.956;2023-02-12T09:11:24;16.10;55.80
67899;DHT22;54699;51.796;10.956;2023-02-12T09:13:55;16.10;56.00
67899;DHT22;54699;51.796;10.956;2023-02-12T09:16:23;16.10;56.10
67899;DHT22;54699;51.796;10.956;2023-02-12T09:18:50;16.10;56.30
67899;DHT22;54699;51.796;10.956;2023-02-12T09:21:17;16.10;56.30
67899;DHT22;54699;51.796;10.956;2023-02-12T09:23:45;16.10;56.40
67899;DHT22;54699;51.796;10.956;2023-02-12T09:26:15;16.20;56.40
67899;DHT22;54699;51.796;10.956;2023-02-12T09:28:45;16.20;56.50
67899;DHT22;54699;51.796;10.956;2023-02-12T09:31:13;16.20;56.60
67899;DHT22;54699;51.796;10.956;2023-02-12T09:33:41;16.10;57.20
67899;DHT22;54699;51.796;10.956;2023-02-12T09:36:09;16.20;56.90
67899;DHT22;54699;51.796;10.956;2023-02-12T09:38:37;16.20;57.00
67899;DHT22;54699;51.796;10.956;2023-02-12T09:41:11;16.20;57.20
67899;DHT22;54699;51.796;10.956;2023-02-12T09:44:02;16.20;57.30
67899;DHT22;54699;51.796;10.956;2023-02-12T09:46:34;16.20;57.10
67899;DHT22;54699;51.796;10.956;2023-02-12T09:49:08;16.20;57.20
67899;DHT22;54699;51.796;10.956;2023-02-12T09:51:41;16.20;57.50
67899;DHT22;54699;51.796;10.956;2023-02-12T09:54:11;16.20;57.60
67899;DHT22;54699;51.796;10.956;2023-02-12T09:56:43;16.30;57.40
67899;DHT22;54699;51.796;10.956;2023-02-12T09:59:13;16.30;57.10
67899;DHT22;54699;51.796;10.956;2023-02-12T10:01:57;16.20;57.20
67899;DHT22;54699;51.796;10.956;2023-02-12T10:04:24;16.30;57.20
67899;DHT22;54699;51.796;10.956;2023-02-12T10:06:55;16.30;57.30
67899;DHT22;54699;51.796;10.956;2023-02-12T10:09:39;16.30;57.10
67899;DHT22;54699;51.796;10.956;2023-02-12T10:12:27;16.30;57.00
67899;DHT22;54699;51.796;10.956;2023-02-12T10:17:50;16.30;57.00
67899;DHT22;54699;51.796;10.956;2023-02-12T10:20:29;16.40;56.90
67899;DHT22;54699;51.796;10.956;2023-02-12T10:23:20;16.40;56.60
67899;DHT22;54699;51.796;10.956;2023-02-12T10:25:58;16.40;56.30
67899;DHT22;54699;51.796;10.956;2023-02-12T10:28:32;16.40;56.10
67899;DHT22;54699;51.796;10.956;2023-02-12T10:31:03;16.50;55.90
67899;DHT22;54699;51.796;10.956;2023-02-12T10:33:34;16.50;55.70
67899;DHT22;54699;51.796;10.956;2023-02-12T10:36:08;16.50;55.00
67899;DHT22;54699;51.796;10.956;2023-02-12T10:38:42;16.60;54.60
67899;DHT22;54699;51.796;10.956;2023-02-12T10:41:14;16.60;54.50
67899;DHT22;54699;51.796;10.956;2023-02-12T10:43:43;16.60;54.50
67899;DHT22;54699;51.796;10.956;2023-02-12T10:46:12;16.70;54.40
67899;DHT22;54699;51.796;10.956;2023-02-12T10:48:40;16.70;54.20
67899;DHT22;54699;51.796;10.956;2023-02-12T10:56:57;16.70;54.40
67899;DHT22;54699;51.796;10.956;2023-02-12T10:59:26;16.70;53.90
67899;DHT22;54699;51.796;10.956;2023-02-12T11:01:54;16.70;53.90
67899;DHT22;54699;51.796;10.956;2023-02-12T11:04:23;16.80;54.00
67899;DHT22;54699;51.796;10.956;2023-02-12T11:06:56;16.80;54.10
67899;DHT22;54699;51.796;10.956;2023-02-12T11:09:28;16.80;54.10
67899;DHT22;54699;51.796;10.956;2023-02-12T11:11:55;16.80;54.00
67899;DHT22;54699;51.796;10.956;2023-02-12T11:14:23;16.80;54.10
67899;DHT22;54699;51.796;10.956;2023-02-12T11:16:52;16.80;54.10
67899;DHT22;54699;51.796;10.956;2023-02-12T11:19:21;16.80;54.00
67899;DHT22;54699;51.796;10.956;2023-02-12T11:21:49;16.80;53.90
67899;DHT22;54699;51.796;10.956;2023-02-12T11:24:21;16.80;53.80
67899;DHT22;54699;51.796;10.956;2023-02-12T11:27:02;16.90;53.90
67899;DHT22;54699;51.796;10.956;2023-02-12T11:29:37;16.90;53.90
67899;DHT22;54699;51.796;10.956;2023-02-12T11:32:06;16.90;53.80
67899;DHT22;54699;51.796;10.956;2023-02-12T11:34:40;16.90;53.80
67899;DHT22;54699;51.796;10.956;2023-02-12T11:37:09;16.90;53.90
67899;DHT22;54699;51.796;10.956;2023-02-12T11:39:41;16.90;53.70
67899;DHT22;54699;51.796;10.956;2023-02-12T11:42:14;16.90;53.80
67899;DHT22;54699;51.796;10.956;2023-02-12T11:44:43;16.90;53.90
67899;DHT22;54699;51.796;10.956;2023-02-12T11:47:17;17.00;53.80
67899;DHT22;54699;51.796;10.956;2023-02-12T11:49:48;16.90;53.70
67899;DHT22;54699;51.796;10.956;2023-02-12T11:52:19;17.00;53.70
67899;DHT22;54699;51.796;10.956;2023-02-12T11:54:49;17.00;53.70
67899;DHT22;54699;51.796;10.956;2023-02-12T11:57:36;17.00;53.80
67899;DHT22;54699;51.796;10.956;2023-02-12T12:00:10;17.00;53.00
67899;DHT22;54699;51.796;10.956;2023-02-12T12:02:43;17.00;53.40
67899;DHT22;54699;51.796;10.956;2023-02-12T12:05:14;17.00;53.50
67899;DHT22;54699;51.796;10.956;2023-02-12T12:07:44;17.00;53.30
67899;DHT22;54699;51.796;10.956;2023-02-12T12:10:16;17.10;53.50
67899;DHT22;54699;51.796;10.956;2023-02-12T12:12:52;17.10;51.50
67899;DHT22;54699;51.796;10.956;2023-02-12T12:15:22;17.10;51.90
67899;DHT22;54699;51.796;10.956;2023-02-12T12:18:14;17.10;52.00
67899;DHT22;54699;51.796;10.956;2023-02-12T12:21:08;17.20;51.40
67899;DHT22;54699;51.796;10.956;2023-02-12T12:23:41;17.20;51.30
67899;DHT22;54699;51.796;10.956;2023-02-12T12:26:13;17.20;51.90
67899;DHT22;54699;51.796;10.956;2023-02-12T12:28:49;17.20;53.00
67899;DHT22;54699;51.796;10.956;2023-02-12T12:31:21;17.20;52.70
67899;DHT22;54699;51.796;10.956;2023-02-12T12:33:55;17.20;52.50
67899;DHT22;54699;51.796;10.956;2023-02-12T12:39:27;17.20;53.20
67899;DHT22;54699;51.796;10.956;2023-02-12T12:42:07;17.20;51.10
67899;DHT22;54699;51.796;10.956;2023-02-12T12:44:54;17.20;52.80
67899;DHT22;54699;51.796;10.956;2023-02-12T12:47:34;17.20;53.00
67899;DHT22;54699;51.796;10.956;2023-02-12T12:50:19;17.20;52.30
67899;DHT22;54699;51.796;10.956;2023-02-12T12:52:57;17.20;53.80
67899;DHT22;54699;51.796;10.956;2023-02-12T12:55:42;17.20;53.90
67899;DHT22;54699;51.796;10.956;2023-02-12T12:58:22;17.20;53.50
67899;DHT22;54699;51.796;10.956;2023-02-12T13:04:11;17.20;53.80
67899;DHT22;54699;51.796;10.956;2023-02-12T13:06:59;17.10;54.90
67899;DHT22;54699;51.796;10.956;2023-02-12T13:09:39;17.20;54.30
67899;DHT22;54699;51.796;10.956;2023-02-12T13:15:32;17.20;54.60
67899;DHT22;54699;51.796;10.956;2023-02-12T13:18:13;17.10;54.60
67899;DHT22;54699;51.796;10.956;2023-02-12T13:20:50;17.20;54.20
67899;DHT22;54699;51.796;10.956;2023-02-12T13:23:29;17.20;54.40
67899;DHT22;54699;51.796;10.956;2023-02-12T13:26:06;17.20;54.50
67899;DHT22;54699;51.796;10.956;2023-02-12T13:28:38;17.10;54.40
67899;DHT22;54699;51.796;10.956;2023-02-12T13:31:08;17.10;54.50
67899;DHT22;54699;51.796;10.956;2023-02-12T13:33:40;17.20;54.60
67899;DHT22;54699;51.796;10.956;2023-02-12T13:36:11;17.10;54.60
67899;DHT22;54699;51.796;10.956;2023-02-12T13:38:41;17.20;54.50
67899;DHT22;54699;51.796;10.956;2023-02-12T13:41:12;17.10;54.40
67899;DHT22;54699;51.796;10.956;2023-02-12T13:43:46;17.10;54.60
67899;DHT22;54699;51.796;10.956;2023-02-12T13:46:25;17.20;54.70
67899;DHT22;54699;51.796;10.956;2023-02-12T13:49:03;17.10;54.60
67899;DHT22;54699;51.796;10.956;2023-02-12T13:51:39;17.10;54.60
67899;DHT22;54699;51.796;10.956;2023-02-12T13:54:13;17.10;54.70
67899;DHT22;54699;51.796;10.956;2023-02-12T13:56:50;17.10;54.60
67899;DHT22;54699;51.796;10.956;2023-02-12T14:02:23;17.20;54.50
67899;DHT22;54699;51.796;10.956;2023-02-12T14:05:13;17.20;54.70
67899;DHT22;54699;51.796;10.956;2023-02-12T14:07:43;17.20;54.70
67899;DHT22;54699;51.796;10.956;2023-02-12T14:10:19;17.10;54.60
67899;DHT22;54699;51.796;10.956;2023-02-12T14:12:48;17.20;54.70
67899;DHT22;54699;51.796;10.956;2023-02-12T14:15:21;17.10;54.60
67899;DHT22;54699;51.796;10.956;2023-02-12T14:17:55;17.20;54.80
67899;DHT22;54699;51.796;10.956;2023-02-12T14:20:29;17.20;54.70
67899;DHT22;54699;51.796;10.956;2023-02-12T14:25:52;17.10;54.90
67899;DHT22;54699;51.796;10.956;2023-02-12T14:28:26;17.10;55.00
67899;DHT22;54699;51.796;10.956;2023-02-12T14:37:15;17.10;55.10
67899;DHT22;54699;51.796;10.956;2023-02-12T14:42:58;17.10;55.30
67899;DHT22;54699;51.796;10.956;2023-02-12T14:45:28;17.10;55.30
67899;DHT22;54699;51.796;10.956;2023-02-12T14:47:57;17.10;55.30
67899;DHT22;54699;51.796;10.956;2023-02-12T14:50:25;17.10;55.40
67899;DHT22;54699;51.796;10.956;2023-02-12T14:53:02;17.10;55.40
67899;DHT22;54699;51.796;10.956;2023-02-12T14:55:33;17.10;55.50
67899;DHT22;54699;51.796;10.956;2023-02-12T14:58:03;17.00;55.60
67899;DHT22;54699;51.796;10.956;2023-02-12T15:00:35;17.10;55.50
67899;DHT22;54699;51.796;10.956;2023-02-12T15:03:18;17.00;55.50
67899;DHT22;54699;51.796;10.956;2023-02-12T15:05:53;17.10;55.70
67899;DHT22;54699;51.796;10.956;2023-02-12T15:08:27;17.10;55.70
67899;DHT22;54699;51.796;10.956;2023-02-12T15:10:58;17.00;55.60
67899;DHT22;54699;51.796;10.956;2023-02-12T15:13:41;17.00;55.60
67899;DHT22;54699;51.796;10.956;2023-02-12T15:16:14;17.10;55.70
67899;DHT22;54699;51.796;10.956;2023-02-12T15:18:49;17.10;55.90
67899;DHT22;54699;51.796;10.956;2023-02-12T15:21:22;17.00;55.80
67899;DHT22;54699;51.796;10.956;2023-02-12T15:23:59;17.00;55.80
67899;DHT22;54699;51.796;10.956;2023-02-12T15:26:28;17.00;55.80
67899;DHT22;54699;51.796;10.956;2023-02-12T15:28:59;17.00;55.90
67899;DHT22;54699;51.796;10.956;2023-02-12T15:31:28;17.00;56.00
67899;DHT22;54699;51.796;10.956;2023-02-12T15:33:57;17.00;56.00
67899;DHT22;54699;51.796;10.956;2023-02-12T15:36:26;17.00;56.10
67899;DHT22;54699;51.796;10.956;2023-02-12T15:38:55;17.00;56.00
67899;DHT22;54699;51.796;10.956;2023-02-12T15:41:28;17.00;56.10
67899;DHT22;54699;51.796;10.956;2023-02-12T15:44:03;17.00;56.00
67899;DHT22;54699;51.796;10.956;2023-02-12T15:46:54;17.00;56.10
67899;DHT22;54699;51.796;10.956;2023-02-12T15:49:25;17.00;56.10
67899;DHT22;54699;51.796;10.956;2023-02-12T15:51:53;17.00;56.20
67899;DHT22;54699;51.796;10.956;2023-02-12T15:54:22;17.00;56.20
67899;DHT22;54699;51.796;10.956;2023-02-12T15:56:49;17.00;56.20
67899;DHT22;54699;51.796;10.956;2023-02-12T15:59:19;16.90;56.30
67899;DHT22;54699;51.796;10.956;2023-02-12T16:01:51;17.00;56.40
67899;DHT22;54699;51.796;10.956;2023-02-12T16:04:19;17.00;56.50
67899;DHT22;54699;51.796;10.956;2023-02-12T16:06:46;17.00;56.60
67899;DHT22;54699;51.796;10.956;2023-02-12T16:09:14;17.00;56.60
67899;DHT22;54699;51.796;10.956;2023-02-12T16:11:44;17.00;57.10